CSAV Rio Maipo — A8GH5 — position and weather

sailwx.info

Track history (hours):
 
Tides and Currents Weather Stations Pressure Air Temp Water Temp Dewpoint Dewpoint Depression Visibility Wind Speed Wind Dir Waves Ship Positions

CSAV Rio Maipo

Last reported at 2015-May-26 13:33 UTC. Time now 2015-May-28 01:47 UTC.
Position N 01°13' E 103°55'.

Length 210.9 m; beam 32.3 m; draft 12 m.

Type: Ship (hazmat cat A). MMSI: 636091292.

Date/timePositionNaut miles runAvg speedWind from/ knotsBaromVisibWave heightAir tempDewpointWater temp
2015-May-26 13:33N 01°13' E 103°55'9 9.0
2015-May-26 12:33N 01°15' E 103°46'2 1.2
2015-May-26 11:04N 01°17' E 103°46'0 0.0
2015-May-26 10:31N 01°17' E 103°46'0 0.0
2015-May-26 09:22N 01°17' E 103°46'0 0.0
2015-May-26 07:28N 01°17' E 103°46'0 0.0
2015-May-26 06:16N 01°17' E 103°46'0 0.0
2015-May-26 05:22N 01°17' E 103°46'0 0.0
2015-May-26 00:28N 01°17' E 103°46'0 0.0
2015-May-25 23:16N 01°17' E 103°46'0 0.0
2015-May-25 22:22N 01°17' E 103°46'0 0.0
2015-May-25 21:06N 01°17' E 103°46'1 2.2
2015-May-25 20:33N 01°17' E 103°45'9 8.7
2015-May-25 19:33N 01°13' E 103°53'  
2015-May-20 06:32N 22°00' E 114°21'1110.8
2015-May-20 05:33N 22°08' E 114°13'1313.4
2015-May-20 04:33N 22°19' E 114°05'1211.5
2015-May-20 03:33N 22°23' E 113°54'4 4.3
2015-May-20 02:33N 22°28' E 113°54'0 0.0
2015-May-20 01:30N 22°28' E 113°54'0 0.0
2015-May-20 00:30N 22°28' E 113°54'0 0.0
2015-May-19 23:30N 22°28' E 113°54'0 0.0
2015-May-19 22:24N 22°28' E 113°54'0 0.0
2015-May-19 21:30N 22°28' E 113°54'0 0.0
2015-May-19 20:30N 22°28' E 113°54'0 0.0
2015-May-19 19:30N 22°28' E 113°54'0 0.0
2015-May-19 18:30N 22°28' E 113°54'0 0.0
2015-May-19 17:30N 22°28' E 113°54'2 2.6
2015-May-19 16:33N 22°25' E 113°53'1210.3
2015-May-19 15:24N 22°20' E 114°05'1311.5
2015-May-19 14:16N 22°10' E 114°13'911.9
2015-May-19 13:30N 22°09' E 114°23'215 7.7
2015-May-18 09:28N 23°39' E 117°55'10 8.2
2015-May-18 08:17N 23°46' E 118°02'6 8.8
2015-May-18 07:33N 23°51' E 118°07'9 8.7
2015-May-18 06:33N 23°58' E 118°13'9 8.9
2015-May-18 05:33N 24°05' E 118°19'9 8.9
2015-May-18 04:33N 24°13' E 118°17'9 9.4
2015-May-18 03:33N 24°20' E 118°10'1010.3
2015-May-18 02:33N 24°29' E 118°04'2 2.0
2015-May-18 01:33N 24°31' E 118°05'0 0.0
2015-May-18 00:29N 24°31' E 118°05'0 0.0
2015-May-17 23:32N 24°31' E 118°05'0 0.0
2015-May-17 22:29N 24°31' E 118°05'0 0.0
2015-May-17 21:23N 24°31' E 118°05'0 0.0
2015-May-17 20:29N 24°31' E 118°05'0 0.0
2015-May-17 19:23N 24°31' E 118°05'0 0.0
2015-May-17 18:29N 24°31' E 118°05'0 0.0
2015-May-17 17:29N 24°31' E 118°05'7 7.7
2015-May-17 16:33N 24°24' E 118°06'1111.1
2015-May-17 15:33N 24°16' E 118°15'1110.2
2015-May-17 14:31N 24°15' E 118°26'3110.5
2015-May-17 11:33N 24°29' E 118°57'1110.4
2015-May-17 10:30N 24°36' E 119°06'1110.5
2015-May-17 09:30N 24°43' E 119°15'  
Track history (hours):
 
Tides and Currents Weather Stations Pressure Air Temp Water Temp Dewpoint Dewpoint Depression Visibility Wind Speed Wind Dir Waves Ship Positions

CSAV Rio Maipo

Last reported at 2015-May-26 13:33 UTC. Time now 2015-May-28 01:47 UTC.
Position N 01°13' E 103°55'.

Length 210.9 m; beam 32.3 m; draft 12 m.

Type: Ship (hazmat cat A). MMSI: 636091292.

Date/timePositionNaut miles runAvg speedWind from/ knotsBaromVisibWave heightAir tempDewpointWater temp
2015-May-26 13:33N 01°13' E 103°55'9 9.0
2015-May-26 12:33N 01°15' E 103°46'2 1.2
2015-May-26 11:04N 01°17' E 103°46'0 0.0
2015-May-26 10:31N 01°17' E 103°46'0 0.0
2015-May-26 09:22N 01°17' E 103°46'0 0.0
2015-May-26 07:28N 01°17' E 103°46'0 0.0
2015-May-26 06:16N 01°17' E 103°46'0 0.0
2015-May-26 05:22N 01°17' E 103°46'0 0.0
2015-May-26 00:28N 01°17' E 103°46'0 0.0
2015-May-25 23:16N 01°17' E 103°46'0 0.0
2015-May-25 22:22N 01°17' E 103°46'0 0.0
2015-May-25 21:06N 01°17' E 103°46'1 2.2
2015-May-25 20:33N 01°17' E 103°45'9 8.7
2015-May-25 19:33N 01°13' E 103°53'  
2015-May-20 06:32N 22°00' E 114°21'1110.8
2015-May-20 05:33N 22°08' E 114°13'1313.4
2015-May-20 04:33N 22°19' E 114°05'1211.5
2015-May-20 03:33N 22°23' E 113°54'4 4.3
2015-May-20 02:33N 22°28' E 113°54'0 0.0
2015-May-20 01:30N 22°28' E 113°54'0 0.0
2015-May-20 00:30N 22°28' E 113°54'0 0.0
2015-May-19 23:30N 22°28' E 113°54'0 0.0
2015-May-19 22:24N 22°28' E 113°54'0 0.0
2015-May-19 21:30N 22°28' E 113°54'0 0.0
2015-May-19 20:30N 22°28' E 113°54'0 0.0
2015-May-19 19:30N 22°28' E 113°54'0 0.0
2015-May-19 18:30N 22°28' E 113°54'0 0.0
2015-May-19 17:30N 22°28' E 113°54'2 2.6
2015-May-19 16:33N 22°25' E 113°53'1210.3
2015-May-19 15:24N 22°20' E 114°05'1311.5
2015-May-19 14:16N 22°10' E 114°13'911.9
2015-May-19 13:30N 22°09' E 114°23'215 7.7
2015-May-18 09:28N 23°39' E 117°55'10 8.2
2015-May-18 08:17N 23°46' E 118°02'6 8.8
2015-May-18 07:33N 23°51' E 118°07'9 8.7
2015-May-18 06:33N 23°58' E 118°13'9 8.9
2015-May-18 05:33N 24°05' E 118°19'9 8.9
2015-May-18 04:33N 24°13' E 118°17'9 9.4
2015-May-18 03:33N 24°20' E 118°10'1010.3
2015-May-18 02:33N 24°29' E 118°04'2 2.0
2015-May-18 01:33N 24°31' E 118°05'0 0.0
2015-May-18 00:29N 24°31' E 118°05'0 0.0
2015-May-17 23:32N 24°31' E 118°05'0 0.0
2015-May-17 22:29N 24°31' E 118°05'0 0.0
2015-May-17 21:23N 24°31' E 118°05'0 0.0
2015-May-17 20:29N 24°31' E 118°05'0 0.0
2015-May-17 19:23N 24°31' E 118°05'0 0.0
2015-May-17 18:29N 24°31' E 118°05'0 0.0
2015-May-17 17:29N 24°31' E 118°05'7 7.7
2015-May-17 16:33N 24°24' E 118°06'1111.1
2015-May-17 15:33N 24°16' E 118°15'1110.2
2015-May-17 14:31N 24°15' E 118°26'3110.5
2015-May-17 11:33N 24°29' E 118°57'1110.4
2015-May-17 10:30N 24°36' E 119°06'1110.5
2015-May-17 09:30N 24°43' E 119°15'  

Dump ship's entire track history